Time;durP1;ratioP1;P1;durP2;ratioP2;P2;SDS_P1;SDS_P2;PMS_P1;PMS_P2;Temp;Humidity;BMP_temperature;BMP_pressure;BME280_temperature;BME280_humidity;BME280_pressure;Samples;Min_cycle;Max_cycle;Signal;HPM_P1;HPM_P2
2022/12/20 00:01:27;;;;;;;24.20;22.15;;;;;;;;;;5093992;28;20436;-75
2022/12/20 00:03:55;;;;;;;24.47;22.87;;;;;;;;;;5093251;28;20208;-74
2022/12/20 00:06:23;;;;;;;24.50;22.70;;;;;;;;;;5093691;28;21327;-75
2022/12/20 00:08:53;;;;;;;24.38;22.67;;;;;;;;;;5094017;28;20902;-75
2022/12/20 00:11:22;;;;;;;23.88;22.13;;;;;;;;;;5093860;28;20214;-75
2022/12/20 00:13:49;;;;;;;23.73;22.15;;;;;;;;;;5093078;28;20670;-74
2022/12/20 00:16:18;;;;;;;23.80;22.20;;;;;;;;;;5093577;28;20229;-76
2022/12/20 00:18:45;;;;;;;24.40;22.60;;;;;;;;;;5093526;28;20448;-75
2022/12/20 00:21:13;;;;;;;24.07;22.47;;;;;;;;;;5093542;28;20452;-76
2022/12/20 00:23:40;;;;;;;24.30;22.30;;;;;;;;;;5092913;28;20415;-75
2022/12/20 00:26:08;;;;;;;24.87;22.80;;;;;;;;;;5093402;28;20949;-75
2022/12/20 00:28:36;;;;;;;23.87;22.20;;;;;;;;;;5093340;28;20447;-75
2022/12/20 00:31:04;;;;;;;24.80;23.15;;;;;;;;;;5093193;28;20449;-76
2022/12/20 00:33:31;;;;;;;24.50;22.77;;;;;;;;;;5092992;28;20209;-74
2022/12/20 00:35:58;;;;;;;23.43;21.43;;;;;;;;;;5093229;28;20933;-75
2022/12/20 00:38:26;;;;;;;22.93;21.43;;;;;;;;;;5093503;28;20418;-75
2022/12/20 00:41:00;;;;;;;24.10;22.50;;;;;;;;;;5093203;28;21134;-75
2022/12/20 00:43:27;;;;;;;24.60;22.97;;;;;;;;;;5092488;28;20466;-75
2022/12/20 00:45:55;;;;;;;22.85;21.35;;;;;;;;;;5093372;28;20485;-75
2022/12/20 00:48:22;;;;;;;23.73;22.23;;;;;;;;;;5093474;28;20613;-75
2022/12/20 00:50:50;;;;;;;24.00;22.40;;;;;;;;;;5093348;28;20509;-75
2022/12/20 00:53:17;;;;;;;23.53;21.83;;;;;;;;;;5092416;28;20444;-75
2022/12/20 00:55:44;;;;;;;23.87;22.20;;;;;;;;;;5093101;28;20443;-75
2022/12/20 00:58:12;;;;;;;24.17;22.60;;;;;;;;;;5093232;28;20500;-75
2022/12/20 01:00:39;;;;;;;24.17;22.33;;;;;;;;;;5093153;28;20423;-75
2022/12/20 01:03:08;;;;;;;24.27;22.67;;;;;;;;;;5092648;28;20418;-75
2022/12/20 01:05:35;;;;;;;24.90;23.00;;;;;;;;;;5093301;28;20471;-75
2022/12/20 01:08:02;;;;;;;24.60;23.00;;;;;;;;;;5092841;28;20928;-76
2022/12/20 01:10:29;;;;;;;23.20;21.80;;;;;;;;;;5092852;28;20961;-76
2022/12/20 01:12:56;;;;;;;24.47;22.97;;;;;;;;;;5092518;28;20928;-76
2022/12/20 01:15:23;;;;;;;23.37;21.87;;;;;;;;;;5093344;28;20432;-76
2022/12/20 01:17:50;;;;;;;23.70;22.20;;;;;;;;;;5093014;28;20445;-75
2022/12/20 01:20:19;;;;;;;23.70;22.20;;;;;;;;;;5093015;28;20451;-75
2022/12/20 01:22:46;;;;;;;23.27;21.87;;;;;;;;;;5092961;28;20467;-74
2022/12/20 01:25:13;;;;;;;23.40;21.90;;;;;;;;;;5092224;28;20452;-76
2022/12/20 01:27:40;;;;;;;23.97;22.27;;;;;;;;;;5092910;28;20451;-75
2022/12/20 01:30:07;;;;;;;23.00;21.60;;;;;;;;;;5092872;28;20483;-75
2022/12/20 01:32:34;;;;;;;23.13;21.73;;;;;;;;;;5093174;28;20422;-76
2022/12/20 01:35:02;;;;;;;23.87;22.20;;;;;;;;;;5092376;28;20411;-76
2022/12/20 01:37:31;;;;;;;23.93;22.13;;;;;;;;;;5096649;28;20971;-75
2022/12/20 01:39:58;;;;;;;24.37;22.87;;;;;;;;;;5096953;28;20436;-76
2022/12/20 01:42:25;;;;;;;23.63;22.23;;;;;;;;;;5096763;28;20446;-75
2022/12/20 01:44:57;;;;;;;23.37;21.83;;;;;;;;;;5096009;28;20431;-75
2022/12/20 01:47:26;;;;;;;22.53;21.23;;;;;;;;;;5096590;28;20443;-75
2022/12/20 01:49:54;;;;;;;22.30;21.00;;;;;;;;;;5096740;28;20489;-75
2022/12/20 01:52:23;;;;;;;23.90;22.20;;;;;;;;;;5096766;28;20463;-76
2022/12/20 01:54:54;;;;;;;23.55;21.88;;;;;;;;;;5095905;28;20433;-76
2022/12/20 01:57:22;;;;;;;22.33;20.90;;;;;;;;;;5096679;28;20222;-76
2022/12/20 01:59:51;;;;;;;23.50;22.07;;;;;;;;;;5096519;28;20418;-76
2022/12/20 02:02:18;;;;;;;23.40;22.00;;;;;;;;;;5096545;28;20475;-75
2022/12/20 02:04:45;;;;;;;22.30;21.00;;;;;;;;;;5095611;28;20210;-76
2022/12/20 02:07:13;;;;;;;22.03;20.77;;;;;;;;;;5096301;28;20479;-75
2022/12/20 02:09:40;;;;;;;22.07;20.80;;;;;;;;;;5096244;28;20479;-76
2022/12/20 02:12:11;;;;;;;22.70;21.30;;;;;;;;;;5096379;28;20446;-76
2022/12/20 02:14:48;;;;;;;21.83;20.53;;;;;;;;;;5095749;28;20835;-75
2022/12/20 02:17:19;;;;;;;22.20;20.90;;;;;;;;;;5096207;28;20449;-75
2022/12/20 02:19:55;;;;;;;22.60;21.00;;;;;;;;;;5103122;28;20458;-75
2022/12/20 02:22:26;;;;;;;22.57;20.90;;;;;;;;;;5116655;28;20420;-74
2022/12/20 02:25:02;;;;;;;21.50;20.30;;;;;;;;;;5116025;28;20451;-75
2022/12/20 02:27:47;;;;;;;21.83;20.40;;;;;;;;;;5116372;28;20441;-75
2022/12/20 02:30:17;;;;;;;22.10;20.70;;;;;;;;;;5115754;28;20458;-76
2022/12/20 02:32:48;;;;;;;21.43;20.13;;;;;;;;;;5116366;28;20835;-76
2022/12/20 02:35:18;;;;;;;21.20;19.90;;;;;;;;;;5115599;28;20454;-75
2022/12/20 02:37:50;;;;;;;20.97;19.73;;;;;;;;;;5116269;28;20427;-75
2022/12/20 02:40:19;;;;;;;21.30;20.10;;;;;;;;;;5115817;28;20915;-75
2022/12/20 02:42:47;;;;;;;22.10;20.83;;;;;;;;;;5116056;28;20797;-75
2022/12/20 02:45:14;;;;;;;22.07;20.77;;;;;;;;;;5115033;28;20469;-75
2022/12/20 02:47:46;;;;;;;22.33;21.03;;;;;;;;;;5115632;28;20423;-75
2022/12/20 02:50:13;;;;;;;22.20;21.00;;;;;;;;;;5115690;28;20544;-76
2022/12/20 02:52:40;;;;;;;21.70;20.47;;;;;;;;;;5115698;28;20454;-76
2022/12/20 02:55:08;;;;;;;22.73;21.13;;;;;;;;;;5115246;28;20443;-75
2022/12/20 02:57:38;;;;;;;20.40;19.40;;;;;;;;;;5115657;28;20463;-75
2022/12/20 03:00:07;;;;;;;21.00;19.80;;;;;;;;;;5115459;28;20893;-75
2022/12/20 03:05:17;;;;;;;20.27;19.17;;;;;;;;;;5113851;28;20767;-75
2022/12/20 03:07:44;;;;;;;20.37;19.10;;;;;;;;;;5115463;28;20443;-74
2022/12/20 03:10:11;;;;;;;20.53;19.37;;;;;;;;;;5115764;28;20454;-75
2022/12/20 03:12:38;;;;;;;20.23;19.13;;;;;;;;;;5115638;28;20440;-76
2022/12/20 03:15:06;;;;;;;21.17;19.73;;;;;;;;;;5114772;28;20453;-75
2022/12/20 03:17:33;;;;;;;21.70;20.30;;;;;;;;;;5115026;28;20468;-75
2022/12/20 03:20:01;;;;;;;20.50;19.40;;;;;;;;;;5115544;28;20405;-75
2022/12/20 03:22:30;;;;;;;21.23;20.00;;;;;;;;;;5115172;28;20447;-75
2022/12/20 03:24:57;;;;;;;19.97;18.90;;;;;;;;;;5114409;28;20913;-74
2022/12/20 03:27:24;;;;;;;21.10;19.87;;;;;;;;;;5115203;28;20468;-75
2022/12/20 03:29:51;;;;;;;21.17;19.80;;;;;;;;;;5115027;28;20432;-75
2022/12/20 03:32:18;;;;;;;20.77;19.67;;;;;;;;;;5114733;28;20957;-75
2022/12/20 03:34:46;;;;;;;21.57;20.37;;;;;;;;;;5114427;28;20447;-75
2022/12/20 03:37:15;;;;;;;21.57;20.30;;;;;;;;;;5114640;28;21037;-75
2022/12/20 03:39:42;;;;;;;21.70;20.23;;;;;;;;;;5114996;28;20432;-75
2022/12/20 03:42:09;;;;;;;20.60;19.50;;;;;;;;;;5114762;28;20451;-75
2022/12/20 03:44:36;;;;;;;20.93;19.83;;;;;;;;;;5113911;28;20846;-75
2022/12/20 03:47:03;;;;;;;20.67;19.57;;;;;;;;;;5114898;28;20454;-76
2022/12/20 03:49:30;;;;;;;22.13;20.83;;;;;;;;;;5114709;28;20414;-75
2022/12/20 03:51:57;;;;;;;21.23;20.13;;;;;;;;;;5114563;28;20490;-76
2022/12/20 03:54:26;;;;;;;20.47;19.37;;;;;;;;;;5113918;28;20460;-75
2022/12/20 03:56:53;;;;;;;21.37;20.27;;;;;;;;;;5114236;28;20442;-75
2022/12/20 03:59:20;;;;;;;21.20;20.00;;;;;;;;;;5113597;28;20422;-76
2022/12/20 04:01:47;;;;;;;21.33;20.20;;;;;;;;;;5114478;28;20834;-76
2022/12/20 04:04:14;;;;;;;20.77;19.57;;;;;;;;;;5113760;28;20421;-76
2022/12/20 04:06:42;;;;;;;21.47;20.27;;;;;;;;;;5114456;28;20467;-75
2022/12/20 04:09:09;;;;;;;20.60;19.60;;;;;;;;;;5114289;28;20421;-75
2022/12/20 04:11:38;;;;;;;21.50;20.10;;;;;;;;;;5114060;28;20819;-75
2022/12/20 04:14:05;;;;;;;21.40;19.90;;;;;;;;;;5113523;28;20874;-74
2022/12/20 04:16:32;;;;;;;21.23;20.10;;;;;;;;;;5114180;28;20708;-75
2022/12/20 04:18:59;;;;;;;21.50;20.20;;;;;;;;;;5114217;28;20477;-75
2022/12/20 04:21:27;;;;;;;21.23;19.97;;;;;;;;;;5114190;28;20451;-74
2022/12/20 04:23:55;;;;;;;20.20;19.10;;;;;;;;;;5113339;28;20443;-76
2022/12/20 04:26:22;;;;;;;20.60;19.50;;;;;;;;;;5113677;28;20471;-76
2022/12/20 04:28:50;;;;;;;21.17;19.97;;;;;;;;;;5113682;28;20935;-75
2022/12/20 04:31:18;;;;;;;20.80;19.57;;;;;;;;;;5113809;28;20469;-76
2022/12/20 04:33:45;;;;;;;21.07;19.97;;;;;;;;;;5113237;28;20533;-76
2022/12/20 04:36:12;;;;;;;22.07;20.87;;;;;;;;;;5113716;28;20464;-75
2022/12/20 04:38:39;;;;;;;24.00;22.57;;;;;;;;;;5113641;28;20427;-75
2022/12/20 04:41:06;;;;;;;24.20;22.40;;;;;;;;;;5114078;28;20467;-76
2022/12/20 04:43:34;;;;;;;33.13;30.93;;;;;;;;;;5113050;28;20577;-75
2022/12/20 04:46:03;;;;;;;29.47;27.77;;;;;;;;;;5113698;28;20454;-74
2022/12/20 04:48:30;;;;;;;37.73;35.13;;;;;;;;;;5113647;28;20523;-75
2022/12/20 04:50:57;;;;;;;31.63;29.57;;;;;;;;;;5113307;28;21072;-76
2022/12/20 04:56:09;;;;;;;24.50;23.10;;;;;;;;;;5113468;28;20536;-76
2022/12/20 04:58:36;;;;;;;26.47;24.60;;;;;;;;;;5113351;28;20512;-75
2022/12/20 05:01:05;;;;;;;26.70;25.00;;;;;;;;;;5113341;28;20447;-75
2022/12/20 05:03:32;;;;;;;24.57;23.00;;;;;;;;;;5112763;28;20796;-76
2022/12/20 05:05:59;;;;;;;23.33;21.90;;;;;;;;;;5113034;28;20818;-76
2022/12/20 05:08:26;;;;;;;23.53;21.93;;;;;;;;;;5113212;28;20810;-75
2022/12/20 05:10:53;;;;;;;23.20;21.70;;;;;;;;;;5112955;28;20465;-75
2022/12/20 05:13:20;;;;;;;23.30;22.00;;;;;;;;;;5112572;28;20932;-76
2022/12/20 05:15:51;;;;;;;25.40;23.70;;;;;;;;;;5113040;28;21239;-76
2022/12/20 05:18:20;;;;;;;25.10;23.60;;;;;;;;;;5113408;28;20456;-75
2022/12/20 05:20:47;;;;;;;24.77;23.10;;;;;;;;;;5112974;28;20797;-76
2022/12/20 05:26:17;;;;;;;25.00;23.20;;;;;;;;;;5112637;28;20515;-76
2022/12/20 05:28:44;;;;;;;26.20;24.60;;;;;;;;;;5112935;28;20911;-75
2022/12/20 05:31:11;;;;;;;25.10;23.37;;;;;;;;;;5112882;28;20512;-76
2022/12/20 05:33:40;;;;;;;26.03;24.43;;;;;;;;;;5112773;28;20550;-76
2022/12/20 05:36:07;;;;;;;24.50;22.80;;;;;;;;;;5112767;28;21021;-76
2022/12/20 05:38:34;;;;;;;24.80;23.20;;;;;;;;;;5112951;28;20444;-76
2022/12/20 05:41:03;;;;;;;23.47;22.07;;;;;;;;;;5112561;28;20462;-75
2022/12/20 05:43:30;;;;;;;23.60;22.20;;;;;;;;;;5112064;28;20550;-74
2022/12/20 05:45:59;;;;;;;25.17;23.03;;;;;;;;;;5113008;28;20500;-76
2022/12/20 05:48:26;;;;;;;23.20;21.90;;;;;;;;;;5113125;28;20530;-75
2022/12/20 05:50:54;;;;;;;23.00;21.40;;;;;;;;;;5112761;28;20533;-76
2022/12/20 05:53:22;;;;;;;24.60;23.07;;;;;;;;;;5112247;28;20440;-75
2022/12/20 05:55:50;;;;;;;24.20;22.70;;;;;;;;;;5112602;28;20470;-76
2022/12/20 05:58:17;;;;;;;25.83;24.03;;;;;;;;;;5112920;28;20411;-75
2022/12/20 06:00:46;;;;;;;30.83;28.33;;;;;;;;;;5112819;28;20456;-75
2022/12/20 06:03:13;;;;;;;25.83;24.10;;;;;;;;;;5111524;28;20503;-76
2022/12/20 06:05:41;;;;;;;24.47;22.67;;;;;;;;;;5112890;28;20526;-75
2022/12/20 06:08:10;;;;;;;25.07;23.40;;;;;;;;;;5111492;28;20810;-75
2022/12/20 06:10:37;;;;;;;24.70;23.10;;;;;;;;;;5112587;28;20423;-75
2022/12/20 06:13:04;;;;;;;25.30;23.40;;;;;;;;;;5112142;28;20491;-76
2022/12/20 06:15:31;;;;;;;25.67;24.00;;;;;;;;;;5112807;28;20482;-76
2022/12/20 06:17:59;;;;;;;27.57;24.90;;;;;;;;;;5112535;28;20502;-76
2022/12/20 06:20:27;;;;;;;27.60;25.57;;;;;;;;;;5112525;28;20797;-75
2022/12/20 06:22:54;;;;;;;27.63;25.83;;;;;;;;;;5115286;28;20465;-75
2022/12/20 06:25:22;;;;;;;28.40;26.20;;;;;;;;;;5116274;28;20787;-75
2022/12/20 06:27:49;;;;;;;27.03;24.93;;;;;;;;;;5116508;28;20424;-75
2022/12/20 06:30:17;;;;;;;28.37;26.37;;;;;;;;;;5116471;28;20817;-75
2022/12/20 06:32:44;;;;;;;26.70;24.33;;;;;;;;;;5116282;28;20485;-75
2022/12/20 06:35:11;;;;;;;26.53;24.70;;;;;;;;;;5115714;28;20460;-76
2022/12/20 06:37:39;;;;;;;25.77;24.07;;;;;;;;;;5116203;28;20821;-75
2022/12/20 06:40:07;;;;;;;28.00;25.90;;;;;;;;;;5116167;28;20434;-75
2022/12/20 06:42:35;;;;;;;26.07;24.37;;;;;;;;;;5116499;28;20414;-75
2022/12/20 06:45:02;;;;;;;26.57;24.77;;;;;;;;;;5115269;28;20508;-75
2022/12/20 06:47:29;;;;;;;27.60;25.60;;;;;;;;;;5116008;28;20446;-76
2022/12/20 06:49:56;;;;;;;29.17;27.17;;;;;;;;;;5116016;28;20422;-75
2022/12/20 06:52:23;;;;;;;28.93;26.83;;;;;;;;;;5115849;28;20487;-76
2022/12/20 06:54:50;;;;;;;27.80;25.67;;;;;;;;;;5115500;28;20450;-75
2022/12/20 06:57:18;;;;;;;28.40;26.20;;;;;;;;;;5115798;28;20502;-76
2022/12/20 06:59:47;;;;;;;28.67;26.40;;;;;;;;;;5115674;28;20428;-75
2022/12/20 07:02:14;;;;;;;29.23;26.47;;;;;;;;;;5114780;28;20463;-75
2022/12/20 07:04:41;;;;;;;28.43;26.43;;;;;;;;;;5115046;28;20462;-75
2022/12/20 07:07:08;;;;;;;28.07;25.67;;;;;;;;;;5115564;28;20453;-75
2022/12/20 07:09:36;;;;;;;30.50;27.80;;;;;;;;;;5115678;28;20426;-76
2022/12/20 07:12:04;;;;;;;29.97;27.27;;;;;;;;;;5115541;28;20450;-76
2022/12/20 07:14:31;;;;;;;28.00;25.90;;;;;;;;;;5114568;28;20437;-74
2022/12/20 07:16:59;;;;;;;29.70;27.20;;;;;;;;;;5114666;28;20974;-75
2022/12/20 07:19:26;;;;;;;29.27;27.17;;;;;;;;;;5115445;28;20740;-75
2022/12/20 07:21:53;;;;;;;31.13;28.67;;;;;;;;;;5115452;28;20420;-76
2022/12/20 07:24:21;;;;;;;32.80;30.07;;;;;;;;;;5114668;28;20461;-74
2022/12/20 07:26:48;;;;;;;32.13;29.73;;;;;;;;;;5115040;28;20449;-75
2022/12/20 07:29:15;;;;;;;33.27;30.67;;;;;;;;;;5114930;28;20901;-75
2022/12/20 07:31:42;;;;;;;33.70;30.90;;;;;;;;;;5114940;28;20484;-75
2022/12/20 07:34:10;;;;;;;32.97;30.37;;;;;;;;;;5113038;28;20448;-76
2022/12/20 07:36:38;;;;;;;30.80;28.27;;;;;;;;;;5114961;28;20478;-75
2022/12/20 07:39:05;;;;;;;32.87;30.07;;;;;;;;;;5114846;28;20442;-75
2022/12/20 07:41:32;;;;;;;32.07;29.43;;;;;;;;;;5115043;28;20433;-76
2022/12/20 07:43:59;;;;;;;31.03;28.23;;;;;;;;;;5114272;28;20433;-74
2022/12/20 07:46:27;;;;;;;32.07;29.17;;;;;;;;;;5114545;28;20803;-75
2022/12/20 07:48:54;;;;;;;32.80;29.83;;;;;;;;;;5115037;28;20809;-75
2022/12/20 07:51:25;;;;;;;32.50;29.67;;;;;;;;;;5114764;28;20492;-75
2022/12/20 07:53:53;;;;;;;30.40;27.70;;;;;;;;;;5114117;28;20443;-75
2022/12/20 07:56:21;;;;;;;34.20;31.27;;;;;;;;;;5114563;28;20490;-76
2022/12/20 07:58:49;;;;;;;32.87;29.93;;;;;;;;;;5114626;28;20459;-75
2022/12/20 08:01:16;;;;;;;34.60;31.40;;;;;;;;;;5114659;28;20474;-76
2022/12/20 08:03:45;;;;;;;32.87;29.90;;;;;;;;;;5113949;28;20520;-77
2022/12/20 08:06:13;;;;;;;30.37;28.03;;;;;;;;;;5114222;28;20487;-76
2022/12/20 08:08:43;;;;;;;31.30;28.20;;;;;;;;;;5114275;28;20442;-76
2022/12/20 08:11:11;;;;;;;31.90;29.10;;;;;;;;;;5114138;28;20905;-75
2022/12/20 08:13:38;;;;;;;32.80;29.83;;;;;;;;;;5113789;28;20465;-74
2022/12/20 08:16:06;;;;;;;30.93;28.27;;;;;;;;;;5113995;28;20445;-75
2022/12/20 08:18:33;;;;;;;31.13;28.43;;;;;;;;;;5114228;28;20432;-74
2022/12/20 08:21:00;;;;;;;29.67;27.40;;;;;;;;;;5113962;28;20443;-71
2022/12/20 08:23:27;;;;;;;30.53;27.97;;;;;;;;;;5113571;28;20492;-75
2022/12/20 08:25:56;;;;;;;28.70;26.50;;;;;;;;;;5114812;28;20441;-76
2022/12/20 08:28:23;;;;;;;29.50;27.10;;;;;;;;;;5114266;28;20426;-75
2022/12/20 08:30:50;;;;;;;29.70;27.27;;;;;;;;;;5114477;28;20472;-76
2022/12/20 08:33:18;;;;;;;30.40;27.70;;;;;;;;;;5113354;28;20483;-75
2022/12/20 08:35:45;;;;;;;30.07;27.50;;;;;;;;;;5113879;28;20442;-74
2022/12/20 08:38:12;;;;;;;29.37;26.40;;;;;;;;;;5113707;28;20475;-74
2022/12/20 08:40:39;;;;;;;28.57;26.30;;;;;;;;;;5114284;28;20448;-77
2022/12/20 08:43:07;;;;;;;27.47;25.27;;;;;;;;;;5113900;28;20443;-76
2022/12/20 08:45:35;;;;;;;27.40;25.40;;;;;;;;;;5113871;28;20449;-75
2022/12/20 08:48:02;;;;;;;29.73;27.20;;;;;;;;;;5113905;28;20445;-74
2022/12/20 08:50:29;;;;;;;28.60;26.40;;;;;;;;;;5113898;28;20448;-73
2022/12/20 08:52:56;;;;;;;27.20;25.10;;;;;;;;;;5113416;28;20883;-75
2022/12/20 08:55:23;;;;;;;27.50;25.40;;;;;;;;;;5113276;28;20511;-76
2022/12/20 08:57:50;;;;;;;27.43;25.30;;;;;;;;;;5113578;28;20784;-74
2022/12/20 09:00:19;;;;;;;26.07;24.27;;;;;;;;;;5113409;28;20792;-75
2022/12/20 09:02:47;;;;;;;26.30;24.40;;;;;;;;;;5113708;28;20421;-75
2022/12/20 09:05:14;;;;;;;26.23;24.40;;;;;;;;;;5112781;28;20449;-75
2022/12/20 09:07:41;;;;;;;27.27;24.97;;;;;;;;;;5113510;28;20809;-75
2022/12/20 09:10:09;;;;;;;27.47;25.40;;;;;;;;;;5113566;28;20430;-75
2022/12/20 09:12:37;;;;;;;27.43;25.43;;;;;;;;;;5113404;28;20549;-75
2022/12/20 09:15:05;;;;;;;26.17;24.47;;;;;;;;;;5112863;28;20452;-79
2022/12/20 09:17:33;;;;;;;25.40;23.73;;;;;;;;;;5113150;28;20475;-74
2022/12/20 09:20:00;;;;;;;25.50;23.70;;;;;;;;;;5113471;28;20424;-74
2022/12/20 09:22:29;;;;;;;25.57;23.83;;;;;;;;;;5113425;28;20448;-75
2022/12/20 09:24:57;;;;;;;27.37;25.20;;;;;;;;;;5112106;28;20561;-75
2022/12/20 09:27:24;;;;;;;27.67;25.77;;;;;;;;;;5113273;28;20454;-74
2022/12/20 09:29:51;;;;;;;26.47;24.27;;;;;;;;;;5113388;28;20906;-75
2022/12/20 09:32:18;;;;;;;25.33;23.57;;;;;;;;;;5113993;28;20465;-85
2022/12/20 09:34:47;;;;;;;26.73;24.77;;;;;;;;;;5114998;28;20480;-75
2022/12/20 09:37:14;;;;;;;24.27;22.53;;;;;;;;;;5112326;28;21002;-75
2022/12/20 09:39:41;;;;;;;28.77;26.60;;;;;;;;;;5113204;28;20478;-74
2022/12/20 09:42:09;;;;;;;26.30;24.40;;;;;;;;;;5112901;28;20936;-75
2022/12/20 09:44:38;;;;;;;27.50;25.33;;;;;;;;;;5112174;28;20996;-75
2022/12/20 09:47:06;;;;;;;27.00;25.20;;;;;;;;;;5112701;28;20472;-75
2022/12/20 09:49:35;;;;;;;26.77;24.87;;;;;;;;;;5113092;28;20425;-76
2022/12/20 09:52:11;;;;;;;28.10;25.80;;;;;;;;;;5112764;28;20534;-74
2022/12/20 09:54:41;;;;;;;25.83;23.90;;;;;;;;;;5111887;28;20445;-75
2022/12/20 09:57:15;;;;;;;27.33;25.07;;;;;;;;;;5114580;28;20521;-76
2022/12/20 09:59:43;;;;;;;26.63;24.93;;;;;;;;;;5116912;28;20507;-74
2022/12/20 10:02:11;;;;;;;25.20;23.50;;;;;;;;;;5116334;28;20440;-74
2022/12/20 10:04:39;;;;;;;25.27;23.50;;;;;;;;;;5116415;28;20455;-74
2022/12/20 10:07:17;;;;;;;25.93;24.13;;;;;;;;;;5118432;28;20816;-74
2022/12/20 10:09:53;;;;;;;26.77;24.93;;;;;;;;;;5116652;28;20428;-73
2022/12/20 10:12:26;;;;;;;26.33;24.50;;;;;;;;;;5116775;28;20441;-73
2022/12/20 10:15:11;;;;;;;26.03;24.13;;;;;;;;;;5116340;28;20559;-74
2022/12/20 10:17:44;;;;;;;25.77;23.70;;;;;;;;;;5116296;28;20459;-74
2022/12/20 10:20:29;;;;;;;25.60;23.73;;;;;;;;;;5116737;28;20402;-74
2022/12/20 10:23:01;;;;;;;25.90;24.00;;;;;;;;;;5116668;28;20517;-74
2022/12/20 10:25:30;;;;;;;25.60;23.87;;;;;;;;;;5116469;28;20446;-73
2022/12/20 10:27:58;;;;;;;25.90;24.00;;;;;;;;;;5116380;28;21071;-74
2022/12/20 10:30:26;;;;;;;26.17;24.17;;;;;;;;;;5116455;28;20426;-74
2022/12/20 10:32:54;;;;;;;25.27;23.47;;;;;;;;;;5115993;28;20545;-74
2022/12/20 10:35:26;;;;;;;25.23;23.43;;;;;;;;;;5116038;28;20475;-73
2022/12/20 10:38:02;;;;;;;25.00;23.10;;;;;;;;;;5116652;28;20447;-74
2022/12/20 10:40:31;;;;;;;25.53;23.73;;;;;;;;;;5116532;28;20480;-74
2022/12/20 10:42:58;;;;;;;25.47;23.17;;;;;;;;;;5116142;28;20439;-74
2022/12/20 10:45:33;;;;;;;25.23;23.63;;;;;;;;;;5116101;28;20450;-74
2022/12/20 10:48:01;;;;;;;26.30;24.33;;;;;;;;;;5116280;28;20504;-73
2022/12/20 10:50:28;;;;;;;25.37;23.50;;;;;;;;;;5116536;28;20444;-80
2022/12/20 10:53:20;;;;;;;25.40;23.50;;;;;;;;;;5116105;28;20570;-76
2022/12/20 10:55:47;;;;;;;25.87;24.20;;;;;;;;;;5115773;28;20445;-75
2022/12/20 10:58:16;;;;;;;26.73;24.90;;;;;;;;;;5115829;28;20430;-75
2022/12/20 11:00:43;;;;;;;26.50;24.60;;;;;;;;;;5115710;28;20418;-74
2022/12/20 11:03:15;;;;;;;26.57;24.27;;;;;;;;;;5114383;28;20426;-75
2022/12/20 11:05:52;;;;;;;27.90;25.40;;;;;;;;;;5118449;28;20445;-79
2022/12/20 11:08:23;;;;;;;27.30;25.30;;;;;;;;;;5118122;28;20432;-74
2022/12/20 11:10:50;;;;;;;26.60;24.60;;;;;;;;;;5115292;28;20539;-74
2022/12/20 11:13:22;;;;;;;26.90;25.00;;;;;;;;;;5114383;28;20486;-75
2022/12/20 11:15:50;;;;;;;26.30;24.40;;;;;;;;;;5115207;28;20446;-74
2022/12/20 11:18:21;;;;;;;26.73;24.40;;;;;;;;;;5115332;28;20486;-74
2022/12/20 11:20:51;;;;;;;26.30;24.30;;;;;;;;;;5115130;28;20867;-75
2022/12/20 11:23:22;;;;;;;25.80;23.90;;;;;;;;;;5114808;28;20443;-74
2022/12/20 11:25:56;;;;;;;25.40;23.80;;;;;;;;;;5115223;28;20876;-74
2022/12/20 11:28:30;;;;;;;25.60;23.40;;;;;;;;;;5115006;28;20890;-73
2022/12/20 11:31:02;;;;;;;25.60;23.67;;;;;;;;;;5115521;28;20406;-75
2022/12/20 11:33:49;;;;;;;28.97;26.60;;;;;;;;;;5114627;28;20442;-74
2022/12/20 11:36:22;;;;;;;24.80;23.10;;;;;;;;;;5114731;28;20478;-73
2022/12/20 11:38:51;;;;;;;26.27;24.47;;;;;;;;;;5115005;28;20958;-75
2022/12/20 11:41:25;;;;;;;27.37;25.30;;;;;;;;;;5115177;28;20430;-75
2022/12/20 11:43:59;;;;;;;25.97;24.07;;;;;;;;;;5114268;28;20432;-74
2022/12/20 11:46:34;;;;;;;26.23;24.53;;;;;;;;;;5114975;28;20688;-75
2022/12/20 11:49:09;;;;;;;26.10;24.40;;;;;;;;;;5114971;28;20451;-75
2022/12/20 11:51:43;;;;;;;25.93;24.07;;;;;;;;;;5115126;28;20443;-74
2022/12/20 11:54:13;;;;;;;26.70;24.73;;;;;;;;;;5113903;28;20467;-75
2022/12/20 11:56:43;;;;;;;25.03;23.13;;;;;;;;;;5114698;28;20453;-73
2022/12/20 11:59:13;;;;;;;25.63;23.70;;;;;;;;;;5114781;28;20414;-74
2022/12/20 12:01:42;;;;;;;25.60;23.70;;;;;;;;;;5118095;28;20446;-82
2022/12/20 12:04:12;;;;;;;25.40;23.60;;;;;;;;;;5122997;28;20414;-84
2022/12/20 12:06:40;;;;;;;25.60;23.63;;;;;;;;;;5123939;28;20434;-84
2022/12/20 12:09:10;;;;;;;25.27;23.47;;;;;;;;;;5124687;28;20448;-84
2022/12/20 12:11:39;;;;;;;24.30;22.67;;;;;;;;;;5124640;28;20470;-84
2022/12/20 12:14:14;;;;;;;24.00;22.40;;;;;;;;;;5124240;28;20458;-84
2022/12/20 12:16:43;;;;;;;23.67;22.13;;;;;;;;;;5123655;28;20481;-81
2022/12/20 12:19:11;;;;;;;23.57;21.87;;;;;;;;;;5121547;28;20463;-85
2022/12/20 12:21:43;;;;;;;23.13;21.57;;;;;;;;;;5119082;28;20426;-84
2022/12/20 12:24:15;;;;;;;24.30;22.70;;;;;;;;;;5118621;28;20447;-86
2022/12/20 12:26:42;;;;;;;23.30;21.67;;;;;;;;;;5120533;28;20475;-83
2022/12/20 12:29:13;;;;;;;26.53;24.50;;;;;;;;;;5118386;28;20426;-76
2022/12/20 12:31:42;;;;;;;28.80;26.30;;;;;;;;;;5114285;28;20432;-75
2022/12/20 12:34:14;;;;;;;29.50;26.57;;;;;;;;;;5117244;28;20450;-83
2022/12/20 12:36:58;;;;;;;29.17;26.70;;;;;;;;;;5120478;28;20508;-83
2022/12/20 12:39:31;;;;;;;33.63;30.20;;;;;;;;;;5117975;28;20440;-74
2022/12/20 12:42:19;;;;;;;28.30;25.93;;;;;;;;;;5115689;28;20432;-84
2022/12/20 12:44:50;;;;;;;25.60;23.80;;;;;;;;;;5115083;28;20468;-81
2022/12/20 12:47:20;;;;;;;24.67;22.97;;;;;;;;;;5116931;28;20455;-81
2022/12/20 12:49:49;;;;;;;24.20;22.50;;;;;;;;;;5116787;28;20870;-82
2022/12/20 12:52:28;;;;;;;23.47;21.87;;;;;;;;;;5117101;28;20428;-81
2022/12/20 12:54:55;;;;;;;24.00;22.47;;;;;;;;;;5114950;28;20438;-77
2022/12/20 12:57:22;;;;;;;28.30;25.90;;;;;;;;;;5117690;28;20817;-82
2022/12/20 12:59:51;;;;;;;23.37;21.97;;;;;;;;;;5117451;28;20958;-81
2022/12/20 13:02:39;;;;;;;24.13;22.50;;;;;;;;;;5117716;28;20440;-81
2022/12/20 13:05:24;;;;;;;23.43;21.80;;;;;;;;;;5112302;28;20419;-81
2022/12/20 13:07:52;;;;;;;24.07;22.27;;;;;;;;;;5117190;28;20485;-81
2022/12/20 13:10:37;;;;;;;24.20;22.60;;;;;;;;;;5117623;28;20449;-81
2022/12/20 13:13:13;;;;;;;24.00;22.47;;;;;;;;;;5116410;28;20440;-77
2022/12/20 13:16:05;;;;;;;24.00;22.50;;;;;;;;;;5117299;28;20467;-83
2022/12/20 13:18:32;;;;;;;23.40;21.80;;;;;;;;;;5119631;28;20550;-83
2022/12/20 13:21:18;;;;;;;22.80;21.30;;;;;;;;;;5115864;28;20801;-74
2022/12/20 13:23:45;;;;;;;23.20;21.77;;;;;;;;;;5119787;28;20444;-81
2022/12/20 13:26:33;;;;;;;24.20;22.70;;;;;;;;;;5118575;28;20829;-86
2022/12/20 13:29:18;;;;;;;24.27;22.70;;;;;;;;;;5090591;28;20429;-87
2022/12/20 13:31:47;;;;;;;22.20;20.70;;;;;;;;;;5120431;28;20788;-81
2022/12/20 13:34:28;;;;;;;20.63;19.33;;;;;;;;;;5124423;28;20453;-82
2022/12/20 13:36:59;;;;;;;22.30;20.90;;;;;;;;;;5126722;28;20486;-83
2022/12/20 13:39:32;;;;;;;21.73;20.30;;;;;;;;;;5127051;28;20472;-81
2022/12/20 13:42:08;;;;;;;21.70;20.30;;;;;;;;;;5120736;28;20414;-74
2022/12/20 13:44:37;;;;;;;19.00;18.00;;;;;;;;;;5123104;28;20445;-84
2022/12/20 13:47:16;;;;;;;20.70;19.40;;;;;;;;;;5127506;28;20448;-83
2022/12/20 13:49:44;;;;;;;20.27;19.07;;;;;;;;;;5124023;28;20435;-83
2022/12/20 13:52:21;;;;;;;20.47;19.27;;;;;;;;;;5122040;28;20415;-80
2022/12/20 13:54:49;;;;;;;20.23;19.13;;;;;;;;;;5120505;28;20453;-80
2022/12/20 13:57:17;;;;;;;21.23;19.70;;;;;;;;;;5120178;28;20454;-80
2022/12/20 13:59:46;;;;;;;19.27;18.27;;;;;;;;;;5119983;28;20481;-81
2022/12/20 14:02:19;;;;;;;20.93;19.43;;;;;;;;;;5120631;28;20410;-81
2022/12/20 14:04:51;;;;;;;21.33;20.13;;;;;;;;;;5120549;28;20479;-81
2022/12/20 14:07:19;;;;;;;20.93;19.50;;;;;;;;;;5120854;28;20467;-81
2022/12/20 14:09:47;;;;;;;20.50;19.17;;;;;;;;;;5120789;28;20523;-81
2022/12/20 14:12:15;;;;;;;19.90;18.80;;;;;;;;;;5117922;28;20454;-75
2022/12/20 14:14:44;;;;;;;19.90;18.70;;;;;;;;;;5116393;28;20526;-76
2022/12/20 14:17:25;;;;;;;20.80;19.50;;;;;;;;;;5118542;28;20831;-78
2022/12/20 14:20:13;;;;;;;19.60;18.50;;;;;;;;;;5120810;28;20431;-75
2022/12/20 14:22:42;;;;;;;19.63;18.53;;;;;;;;;;5117650;28;20479;-74
2022/12/20 14:25:10;;;;;;;20.40;19.10;;;;;;;;;;5117902;28;20465;-81
2022/12/20 14:27:38;;;;;;;19.70;18.50;;;;;;;;;;5120775;28;20407;-85
2022/12/20 14:30:06;;;;;;;20.93;19.37;;;;;;;;;;5121945;28;20490;-85
2022/12/20 14:32:34;;;;;;;21.57;20.17;;;;;;;;;;5120658;28;20444;-74
2022/12/20 14:35:01;;;;;;;19.90;18.80;;;;;;;;;;5110710;28;20561;-73
2022/12/20 14:37:30;;;;;;;21.10;19.70;;;;;;;;;;5104906;28;20463;-73